Time;durP1;ratioP1;P1;durP2;ratioP2;P2;SDS_P1;SDS_P2;PMS_P1;PMS_P2;Temp;Humidity;BMP_temperature;BMP_pressure;BME280_temperature;BME280_humidity;BME280_pressure;Samples;Min_cycle;Max_cycle;Signal;HPM_P1;HPM_P2
2023/05/31 00:01:28;;;;;;;1.65;1.63;;;17.90;85.70;;;;;;5090247;28;20187;-77
2023/05/31 00:03:54;;;;;;;1.45;1.45;;;17.90;85.80;;;;;;5093377;28;20214;-77
2023/05/31 00:06:19;;;;;;;1.38;1.27;;;17.90;86.00;;;;;;5092666;28;20171;-78
2023/05/31 00:08:45;;;;;;;1.75;1.65;;;17.90;85.80;;;;;;5091936;28;20184;-78
2023/05/31 00:11:11;;;;;;;1.75;1.65;;;17.90;85.90;;;;;;5093182;28;20171;-77
2023/05/31 00:13:38;;;;;;;1.50;1.50;;;18.00;85.90;;;;;;5091471;28;20182;-76
2023/05/31 00:16:05;;;;;;;1.90;1.80;;;18.00;86.10;;;;;;5090939;28;20178;-77
2023/05/31 00:18:31;;;;;;;1.70;1.70;;;18.00;86.20;;;;;;5084927;28;20198;-77
2023/05/31 00:20:56;;;;;;;1.77;1.77;;;18.00;86.30;;;;;;5094480;28;20262;-77
2023/05/31 00:23:22;;;;;;;1.63;1.63;;;18.00;86.40;;;;;;5091971;28;20183;-77
2023/05/31 00:25:48;;;;;;;1.90;1.80;;;18.00;85.90;;;;;;5092667;28;20210;-77
2023/05/31 00:28:14;;;;;;;1.95;1.85;;;18.00;86.20;;;;;;5092916;28;20175;-77
2023/05/31 00:30:40;;;;;;;1.85;1.75;;;18.00;86.30;;;;;;5089453;28;20257;-77
2023/05/31 00:33:05;;;;;;;2.00;1.80;;;18.00;86.30;;;;;;5092806;28;20277;-77
2023/05/31 00:35:31;;;;;;;1.63;1.63;;;18.00;86.50;;;;;;5092531;28;20187;-78
2023/05/31 00:37:57;;;;;;;2.10;1.88;;;18.00;86.70;;;;;;5089831;28;20191;-78
2023/05/31 00:40:23;;;;;;;2.50;2.30;;;18.00;86.50;;;;;;5089728;28;20176;-77
2023/05/31 00:42:48;;;;;;;1.77;1.73;;;17.90;86.60;;;;;;5093508;28;20182;-79
2023/05/31 00:45:14;;;;;;;2.17;2.08;;;17.90;86.80;;;;;;5087871;28;20267;-79
2023/05/31 00:47:41;;;;;;;1.73;1.63;;;17.90;86.50;;;;;;5092451;28;20235;-77
2023/05/31 00:50:07;;;;;;;1.63;1.55;;;17.90;86.20;;;;;;5084539;28;20178;-78
2023/05/31 00:52:34;;;;;;;1.98;1.88;;;17.90;86.40;;;;;;5091772;28;20187;-79
2023/05/31 00:55:02;;;;;;;2.35;1.65;;;17.90;86.50;;;;;;5089818;28;20605;-78
2023/05/31 00:57:27;;;;;;;1.70;1.65;;;17.90;86.70;;;;;;5093488;28;20180;-78
2023/05/31 00:59:53;;;;;;;1.90;1.80;;;17.90;86.70;;;;;;5089205;28;20254;-78
2023/05/31 01:02:19;;;;;;;1.60;1.60;;;17.90;86.90;;;;;;5092340;28;20291;-78
2023/05/31 01:04:45;;;;;;;1.67;1.60;;;17.90;86.90;;;;;;5091847;28;20206;-78
2023/05/31 01:07:10;;;;;;;1.60;1.60;;;17.90;87.00;;;;;;5090254;28;20251;-78
2023/05/31 01:09:42;;;;;;;2.55;1.95;;;17.90;87.20;;;;;;5090431;28;20177;-78
2023/05/31 01:15:33;;;;;;;2.30;2.20;;;17.90;86.90;;;;;;5085292;28;20176;-78
2023/05/31 01:18:26;;;;;;;2.30;2.20;;;17.90;86.60;;;;;;5086733;28;20552;-78
2023/05/31 01:20:57;;;;;;;1.95;1.95;;;17.90;86.70;;;;;;5080585;28;20178;-78
2023/05/31 01:23:41;;;;;;;2.47;2.35;;;17.90;87.10;;;;;;5085542;28;20629;-77
2023/05/31 01:26:19;;;;;;;2.50;2.33;;;17.80;86.90;;;;;;5089574;28;20659;-77
2023/05/31 01:28:51;;;;;;;2.47;2.33;;;17.80;87.50;;;;;;5088311;28;20186;-77
2023/05/31 01:31:20;;;;;;;2.22;2.13;;;17.80;87.70;;;;;;5092894;28;20257;-77
2023/05/31 01:33:48;;;;;;;2.90;2.80;;;17.80;87.40;;;;;;5087340;28;20257;-77
2023/05/31 01:36:14;;;;;;;2.63;2.42;;;17.70;87.50;;;;;;5092289;28;20211;-77
2023/05/31 01:38:39;;;;;;;2.40;2.30;;;17.70;87.70;;;;;;5091749;28;20190;-77
2023/05/31 01:41:07;;;;;;;2.55;2.45;;;17.70;87.80;;;;;;5091279;28;20174;-77
2023/05/31 01:43:36;;;;;;;3.95;2.58;;;17.70;87.70;;;;;;5091074;28;20214;-77
2023/05/31 01:46:03;;;;;;;3.03;2.83;;;17.70;87.70;;;;;;5085886;28;20717;-78
2023/05/31 01:48:28;;;;;;;2.50;2.40;;;17.70;87.80;;;;;;5085009;28;20178;-77
2023/05/31 01:50:57;;;;;;;2.70;2.58;;;17.70;88.00;;;;;;5091251;28;20249;-77
2023/05/31 01:53:23;;;;;;;3.13;2.95;;;17.70;87.40;;;;;;5089782;28;20194;-78
2023/05/31 01:55:49;;;;;;;2.95;2.72;;;17.70;87.40;;;;;;5091489;28;20209;-77
2023/05/31 01:58:17;;;;;;;2.63;2.47;;;17.60;88.20;;;;;;5091135;28;20174;-77
2023/05/31 02:00:43;;;;;;;2.45;2.13;;;17.60;87.80;;;;;;5084556;28;20181;-77
2023/05/31 02:03:09;;;;;;;3.15;2.67;;;17.50;88.00;;;;;;5091027;28;20190;-77
2023/05/31 02:05:35;;;;;;;2.67;2.30;;;17.50;88.40;;;;;;5088535;28;20217;-77
2023/05/31 02:08:00;;;;;;;2.03;1.90;;;17.50;88.40;;;;;;5082627;28;20183;-76
2023/05/31 02:10:26;;;;;;;2.15;2.05;;;17.50;88.60;;;;;;5087014;28;20178;-77
2023/05/31 02:12:54;;;;;;;1.85;1.77;;;17.50;88.40;;;;;;5089518;28;20231;-77
2023/05/31 02:15:20;;;;;;;4.10;2.00;;;17.50;88.40;;;;;;5081745;28;20213;-78
2023/05/31 02:17:50;;;;;;;1.90;1.80;;;17.50;88.10;;;;;;5090778;28;20178;-78
2023/05/31 02:20:17;;;;;;;1.80;1.70;;;17.50;88.00;;;;;;5090850;28;20170;-77
2023/05/31 02:22:44;;;;;;;2.72;1.70;;;17.50;88.20;;;;;;5085644;28;20697;-78
2023/05/31 02:25:11;;;;;;;1.40;1.40;;;17.50;88.10;;;;;;5087584;28;20744;-78
2023/05/31 02:27:37;;;;;;;1.83;1.48;;;17.50;88.10;;;;;;5088875;28;20709;-78
2023/05/31 02:30:05;;;;;;;1.70;1.52;;;17.50;88.10;;;;;;5090951;28;20562;-78
2023/05/31 02:32:35;;;;;;;1.50;1.40;;;17.50;88.40;;;;;;5087671;28;20607;-78
2023/05/31 02:35:05;;;;;;;1.75;1.65;;;17.50;88.40;;;;;;5089039;28;20212;-77
2023/05/31 02:37:30;;;;;;;1.50;1.50;;;17.50;88.50;;;;;;5089625;28;20162;-77
2023/05/31 02:39:56;;;;;;;1.90;1.80;;;17.50;88.60;;;;;;5090371;28;20244;-77
2023/05/31 02:42:22;;;;;;;2.45;2.35;;;17.50;88.80;;;;;;5087906;28;20170;-77
2023/05/31 02:44:47;;;;;;;1.42;1.42;;;17.50;88.90;;;;;;5085726;28;20248;-77
2023/05/31 02:47:13;;;;;;;1.75;1.75;;;17.50;88.80;;;;;;5089678;28;20265;-78
2023/05/31 02:49:39;;;;;;;2.35;2.15;;;17.50;88.80;;;;;;5087608;28;20173;-77
2023/05/31 02:52:05;;;;;;;1.80;1.80;;;17.50;88.90;;;;;;5089425;28;20274;-78
2023/05/31 02:54:31;;;;;;;5.30;2.05;;;17.50;88.80;;;;;;5089533;28;20552;-77
2023/05/31 02:56:56;;;;;;;2.00;1.90;;;17.50;88.80;;;;;;5087811;28;20190;-78
2023/05/31 02:59:23;;;;;;;1.92;1.83;;;17.50;88.60;;;;;;5090781;28;20182;-77
2023/05/31 03:01:49;;;;;;;2.85;1.70;;;17.50;88.60;;;;;;5088730;28;20290;-78
2023/05/31 03:04:15;;;;;;;1.95;1.95;;;17.50;88.80;;;;;;5087404;28;20241;-78
2023/05/31 03:06:42;;;;;;;2.65;1.90;;;17.50;88.90;;;;;;5084108;28;21631;-78
2023/05/31 03:09:08;;;;;;;2.08;1.98;;;17.50;89.00;;;;;;5092210;28;20187;-78
2023/05/31 03:11:34;;;;;;;2.00;1.90;;;17.50;89.00;;;;;;5090439;28;20261;-78
2023/05/31 03:13:59;;;;;;;1.83;1.83;;;17.50;89.30;;;;;;5088639;28;20870;-78
2023/05/31 03:16:25;;;;;;;2.17;2.08;;;17.50;89.50;;;;;;5085253;28;20755;-78
2023/05/31 03:18:51;;;;;;;3.53;2.22;;;17.50;89.50;;;;;;5084831;28;20637;-77
2023/05/31 03:21:16;;;;;;;2.47;2.38;;;17.50;89.50;;;;;;5085307;28;20669;-76
2023/05/31 03:23:42;;;;;;;2.25;2.10;;;17.50;89.50;;;;;;5085296;28;20729;-77
2023/05/31 03:26:08;;;;;;;2.15;2.05;;;17.50;89.60;;;;;;5090161;28;20194;-78
2023/05/31 03:28:33;;;;;;;2.63;2.53;;;17.50;89.40;;;;;;5088812;28;20249;-78
2023/05/31 03:30:59;;;;;;;2.50;2.40;;;17.50;89.40;;;;;;5089674;28;20712;-78
2023/05/31 03:33:25;;;;;;;2.47;2.35;;;17.50;89.50;;;;;;5092771;28;20170;-78
2023/05/31 03:35:50;;;;;;;2.83;2.72;;;17.50;89.80;;;;;;5082395;28;20264;-77
2023/05/31 03:38:16;;;;;;;2.45;2.20;;;17.50;90.00;;;;;;5085226;28;20180;-78
2023/05/31 03:40:42;;;;;;;4.65;3.08;;;17.50;90.00;;;;;;5086187;28;20810;-80
2023/05/31 03:43:07;;;;;;;2.40;2.30;;;17.50;89.90;;;;;;5087982;28;20702;-77
2023/05/31 03:45:33;;;;;;;2.88;2.67;;;17.50;90.00;;;;;;5087714;28;20254;-78
2023/05/31 03:47:59;;;;;;;2.88;2.67;;;17.50;90.00;;;;;;5085755;28;20197;-77
2023/05/31 03:50:25;;;;;;;2.60;2.50;;;17.50;90.00;;;;;;5086972;28;20267;-78
2023/05/31 03:52:51;;;;;;;2.88;2.58;;;17.50;90.00;;;;;;5090320;28;20178;-78
2023/05/31 03:55:16;;;;;;;3.17;2.97;;;17.60;90.10;;;;;;5089527;28;20239;-77
2023/05/31 03:57:42;;;;;;;2.60;2.40;;;17.60;90.10;;;;;;5088180;28;20248;-77
2023/05/31 04:00:11;;;;;;;2.95;2.70;;;17.60;90.20;;;;;;5087356;28;20197;-77
2023/05/31 04:02:37;;;;;;;3.03;2.78;;;17.60;90.00;;;;;;5088686;28;20179;-77
2023/05/31 04:05:04;;;;;;;3.00;2.90;;;17.60;89.80;;;;;;5086350;28;20209;-79
2023/05/31 04:07:31;;;;;;;4.43;2.35;;;17.60;89.90;;;;;;5088964;28;20182;-79
2023/05/31 04:09:56;;;;;;;3.17;2.97;;;17.60;89.90;;;;;;5078334;28;20785;-79
2023/05/31 04:12:22;;;;;;;4.35;3.20;;;17.70;89.90;;;;;;5087297;28;20246;-78
2023/05/31 04:14:47;;;;;;;2.90;2.60;;;17.60;89.90;;;;;;5086555;28;20178;-79
2023/05/31 04:17:13;;;;;;;3.20;3.00;;;17.60;89.70;;;;;;5089582;28;20178;-79
2023/05/31 04:19:39;;;;;;;4.20;2.83;;;17.60;89.60;;;;;;5089918;28;20178;-78
2023/05/31 04:22:04;;;;;;;3.45;2.35;;;17.60;89.50;;;;;;5086930;28;20189;-79
2023/05/31 04:24:30;;;;;;;3.90;3.10;;;17.60;89.80;;;;;;5084487;28;20214;-79
2023/05/31 04:26:56;;;;;;;7.18;3.25;;;17.60;89.60;;;;;;5089027;28;20171;-78
2023/05/31 04:29:22;;;;;;;6.72;3.00;;;17.50;89.80;;;;;;5086544;28;20186;-79
2023/05/31 04:31:48;;;;;;;2.45;2.35;;;17.50;89.70;;;;;;5082976;28;20192;-79
2023/05/31 04:34:18;;;;;;;3.22;2.72;;;17.50;89.70;;;;;;5091202;28;20175;-78
2023/05/31 04:36:48;;;;;;;3.03;2.42;;;17.60;89.90;;;;;;5089914;28;20282;-78
2023/05/31 04:39:19;;;;;;;4.70;3.08;;;17.50;90.00;;;;;;5087508;28;20691;-77
2023/05/31 04:41:45;;;;;;;2.90;2.70;;;17.50;89.70;;;;;;5089063;28;20181;-81
2023/05/31 04:44:11;;;;;;;4.18;2.72;;;17.50;89.60;;;;;;5088214;28;20206;-79
2023/05/31 04:46:40;;;;;;;2.55;2.50;;;17.60;89.80;;;;;;5092063;28;20178;-77
2023/05/31 04:49:06;;;;;;;2.40;2.30;;;17.50;89.60;;;;;;5088735;28;20167;-78
2023/05/31 04:51:32;;;;;;;5.55;2.80;;;17.60;89.50;;;;;;5088590;28;20270;-79
2023/05/31 04:53:59;;;;;;;3.95;2.70;;;17.70;89.60;;;;;;5093030;28;20286;-78
2023/05/31 04:56:25;;;;;;;4.03;2.28;;;17.70;89.70;;;;;;5091950;28;20174;-79
2023/05/31 04:58:51;;;;;;;2.63;2.53;;;17.80;89.80;;;;;;5092679;28;20185;-78
2023/05/31 05:01:17;;;;;;;5.30;3.33;;;17.90;89.40;;;;;;5090471;28;20175;-78
2023/05/31 05:03:44;;;;;;;3.03;2.83;;;17.90;89.20;;;;;;5090394;28;20702;-78
2023/05/31 05:06:13;;;;;;;5.30;2.72;;;18.00;89.30;;;;;;5091949;28;20215;-78
2023/05/31 05:08:40;;;;;;;3.67;3.13;;;18.10;88.90;;;;;;5089714;28;20736;-78
2023/05/31 05:11:06;;;;;;;2.85;2.65;;;18.10;88.70;;;;;;5090919;28;20197;-78
2023/05/31 05:13:31;;;;;;;3.45;3.15;;;18.10;88.70;;;;;;5090995;28;20679;-78
2023/05/31 05:15:57;;;;;;;3.45;3.28;;;18.20;88.50;;;;;;5092328;28;20185;-78
2023/05/31 05:18:22;;;;;;;3.05;2.58;;;18.30;88.20;;;;;;5091911;28;20171;-78
2023/05/31 05:20:48;;;;;;;3.42;3.08;;;18.40;88.00;;;;;;5092018;28;20171;-78
2023/05/31 05:23:14;;;;;;;3.10;2.83;;;18.40;87.70;;;;;;5093283;28;20670;-77
2023/05/31 05:25:39;;;;;;;3.03;2.83;;;18.40;87.40;;;;;;5092614;28;20671;-77
2023/05/31 05:28:05;;;;;;;3.10;2.90;;;18.50;87.30;;;;;;5090287;28;20753;-77
2023/05/31 05:30:32;;;;;;;4.32;3.38;;;18.50;87.30;;;;;;5091891;28;20178;-78
2023/05/31 05:32:58;;;;;;;7.65;3.35;;;18.60;87.10;;;;;;5096351;28;20658;-77
2023/05/31 05:35:23;;;;;;;3.70;3.20;;;18.60;87.00;;;;;;5091613;28;20197;-77
2023/05/31 05:37:49;;;;;;;3.15;2.97;;;18.70;86.90;;;;;;5091488;28;20211;-78
2023/05/31 05:40:15;;;;;;;3.22;3.03;;;18.70;86.90;;;;;;5087839;28;20171;-77
2023/05/31 05:42:41;;;;;;;3.42;2.90;;;18.70;87.20;;;;;;5086538;28;20197;-77
2023/05/31 05:45:08;;;;;;;3.92;3.53;;;18.70;87.50;;;;;;5091502;28;20218;-77
2023/05/31 05:47:34;;;;;;;4.65;3.72;;;18.60;86.90;;;;;;5089415;28;20225;-76
2023/05/31 05:50:00;;;;;;;3.53;2.65;;;18.60;86.80;;;;;;5082085;28;20167;-77
2023/05/31 05:52:26;;;;;;;2.90;2.70;;;18.70;87.00;;;;;;5089593;28;20705;-77
2023/05/31 05:54:52;;;;;;;2.60;2.45;;;18.80;86.90;;;;;;5090974;28;20182;-77
2023/05/31 05:57:19;;;;;;;4.47;3.00;;;18.80;86.90;;;;;;5090818;28;20198;-76
2023/05/31 05:59:45;;;;;;;2.90;2.70;;;18.90;86.80;;;;;;5088108;28;20232;-77
2023/05/31 06:02:11;;;;;;;2.17;2.08;;;19.00;86.20;;;;;;5090958;28;20246;-77
2023/05/31 06:04:37;;;;;;;2.35;2.22;;;19.10;86.20;;;;;;5089221;28;20210;-78
2023/05/31 06:07:03;;;;;;;2.45;2.35;;;19.20;86.50;;;;;;5091394;28;20178;-77
2023/05/31 06:09:29;;;;;;;2.42;2.22;;;19.20;86.60;;;;;;5090776;28;20188;-77
2023/05/31 06:11:54;;;;;;;3.38;2.90;;;19.30;86.60;;;;;;5090464;28;20741;-78
2023/05/31 06:14:20;;;;;;;2.83;2.63;;;19.50;86.50;;;;;;5084840;28;20221;-78
2023/05/31 06:16:45;;;;;;;2.65;2.45;;;19.50;85.40;;;;;;5086137;28;20178;-77
2023/05/31 06:19:11;;;;;;;2.38;2.28;;;19.60;85.70;;;;;;5090607;28;20189;-77
2023/05/31 06:21:37;;;;;;;2.88;2.75;;;19.70;85.00;;;;;;5089967;28;20174;-77
2023/05/31 06:24:03;;;;;;;8.45;2.88;;;19.90;85.00;;;;;;5085733;28;20288;-76
2023/05/31 06:26:29;;;;;;;2.83;2.63;;;20.00;84.30;;;;;;5089021;28;20174;-77
2023/05/31 06:28:59;;;;;;;7.72;3.83;;;20.00;83.70;;;;;;5083534;28;20218;-78
2023/05/31 06:31:26;;;;;;;3.60;2.85;;;20.10;83.90;;;;;;5089764;28;20174;-77
2023/05/31 06:33:51;;;;;;;2.95;2.25;;;20.10;84.10;;;;;;5087310;28;20257;-77
2023/05/31 06:36:17;;;;;;;4.15;2.70;;;20.20;84.10;;;;;;5089799;28;20265;-77
2023/05/31 06:38:43;;;;;;;2.95;2.78;;;20.40;84.00;;;;;;5085893;28;20179;-77
2023/05/31 06:41:09;;;;;;;3.13;2.95;;;20.50;83.70;;;;;;5096713;28;20177;-77
2023/05/31 06:43:35;;;;;;;11.82;3.20;;;20.60;83.60;;;;;;5089298;28;20186;-77
2023/05/31 06:46:01;;;;;;;3.38;3.05;;;20.70;82.80;;;;;;5090318;28;20557;-76
2023/05/31 06:48:26;;;;;;;5.15;3.25;;;20.90;82.90;;;;;;5089999;28;20187;-77
2023/05/31 06:50:52;;;;;;;4.78;3.63;;;21.00;82.20;;;;;;5090319;28;20175;-76
2023/05/31 06:53:17;;;;;;;6.05;2.85;;;21.00;81.80;;;;;;5085153;28;20232;-77
2023/05/31 06:55:43;;;;;;;4.05;3.10;;;21.20;81.40;;;;;;5089433;28;20189;-77
2023/05/31 06:58:10;;;;;;;3.40;3.13;;;21.30;80.80;;;;;;5086750;28;20181;-76
2023/05/31 07:00:36;;;;;;;4.43;2.88;;;21.40;80.50;;;;;;5089817;28;20265;-78
2023/05/31 07:03:01;;;;;;;3.25;3.05;;;21.50;80.30;;;;;;5089976;28;20653;-77
2023/05/31 07:05:29;;;;;;;3.55;3.35;;;21.60;80.80;;;;;;5089822;28;20219;-76
2023/05/31 07:07:55;;;;;;;3.10;2.88;;;21.70;79.60;;;;;;5088629;28;20666;-77
2023/05/31 07:10:21;;;;;;;3.10;2.90;;;21.80;80.00;;;;;;5089774;28;20174;-77
2023/05/31 07:12:47;;;;;;;3.50;3.28;;;21.90;80.00;;;;;;5089630;28;20178;-77
2023/05/31 07:15:12;;;;;;;3.20;2.90;;;22.00;78.80;;;;;;5089931;28;20227;-77
2023/05/31 07:17:38;;;;;;;3.53;3.22;;;22.10;78.50;;;;;;5089808;28;20178;-76
2023/05/31 07:20:05;;;;;;;3.97;3.63;;;22.20;78.70;;;;;;5089814;28;20549;-76
2023/05/31 07:22:31;;;;;;;4.78;3.70;;;22.30;78.40;;;;;;5088226;28;20174;-77
2023/05/31 07:24:57;;;;;;;3.67;3.42;;;22.40;78.20;;;;;;5089561;28;20228;-77
2023/05/31 07:27:23;;;;;;;5.10;2.95;;;22.50;78.30;;;;;;5088439;28;20174;-76
2023/05/31 07:29:48;;;;;;;3.40;3.10;;;22.60;78.00;;;;;;5089554;28;20182;-77
2023/05/31 07:32:14;;;;;;;2.60;2.53;;;22.80;78.00;;;;;;5088541;28;20174;-77
2023/05/31 07:34:40;;;;;;;3.33;3.03;;;22.80;77.50;;;;;;5088203;28;20207;-77
2023/05/31 07:37:06;;;;;;;6.13;3.53;;;22.90;76.90;;;;;;5089758;28;20662;-77
2023/05/31 07:39:31;;;;;;;2.85;2.65;;;23.00;76.10;;;;;;5089457;28;20175;-76
2023/05/31 07:41:58;;;;;;;2.55;2.50;;;23.10;76.20;;;;;;5089495;28;20303;-76
2023/05/31 07:44:24;;;;;;;3.35;3.08;;;23.20;75.90;;;;;;5088283;28;20194;-76
2023/05/31 07:46:50;;;;;;;3.70;2.97;;;23.40;75.50;;;;;;5088115;28;20174;-76
2023/05/31 07:49:16;;;;;;;3.17;3.00;;;23.50;75.60;;;;;;5088369;28;20166;-76
2023/05/31 07:51:43;;;;;;;2.90;2.78;;;23.60;75.60;;;;;;5089471;28;20232;-76
2023/05/31 07:54:09;;;;;;;2.67;2.58;;;23.70;75.50;;;;;;5089647;28;20703;-77
2023/05/31 07:56:34;;;;;;;2.30;2.17;;;23.80;74.70;;;;;;5089318;28;20261;-76
2023/05/31 07:59:00;;;;;;;4.32;2.70;;;23.90;74.60;;;;;;5089497;28;20179;-76
2023/05/31 08:01:26;;;;;;;2.97;2.75;;;23.90;73.60;;;;;;5089492;28;20972;-77
2023/05/31 08:03:54;;;;;;;2.75;2.55;;;24.00;74.20;;;;;;5088063;28;20178;-76
2023/05/31 08:06:20;;;;;;;3.97;2.72;;;24.00;74.40;;;;;;5089889;28;20174;-76
2023/05/31 08:08:46;;;;;;;3.10;3.00;;;24.00;74.20;;;;;;5093320;28;20177;-76
2023/05/31 08:11:12;;;;;;;2.72;2.63;;;24.10;73.90;;;;;;5093160;28;20200;-76
2023/05/31 08:13:39;;;;;;;3.03;2.92;;;24.20;73.80;;;;;;5088104;28;20166;-76
2023/05/31 08:16:05;;;;;;;2.92;2.72;;;24.40;73.80;;;;;;5092962;28;20182;-76
2023/05/31 08:18:30;;;;;;;2.85;2.65;;;24.60;73.30;;;;;;5092880;28;20170;-76
2023/05/31 08:20:56;;;;;;;2.55;2.45;;;24.80;72.70;;;;;;5093048;28;20212;-76
2023/05/31 08:23:22;;;;;;;3.03;2.83;;;25.00;72.20;;;;;;5093011;28;20250;-76
2023/05/31 08:25:50;;;;;;;4.03;3.00;;;25.10;71.90;;;;;;5092797;28;20281;-76
2023/05/31 08:28:16;;;;;;;3.95;3.00;;;25.30;70.90;;;;;;5088330;28;20253;-76
2023/05/31 08:30:42;;;;;;;2.28;2.17;;;25.50;71.00;;;;;;5092679;28;20262;-76
2023/05/31 08:33:07;;;;;;;2.60;2.50;;;25.60;69.70;;;;;;5086794;28;20587;-76
2023/05/31 08:35:33;;;;;;;2.95;2.85;;;25.80;69.20;;;;;;5089497;28;20178;-76
2023/05/31 08:37:58;;;;;;;3.13;2.92;;;25.90;69.00;;;;;;5086149;28;20174;-76
2023/05/31 08:40:24;;;;;;;3.10;2.90;;;26.00;69.30;;;;;;5090869;28;20178;-76
2023/05/31 08:43:05;;;;;;;2.65;2.55;;;26.10;69.60;;;;;;5088922;28;20869;-76
2023/05/31 08:45:35;;;;;;;2.90;2.80;;;26.20;70.60;;;;;;5087593;28;20699;-76
2023/05/31 08:48:19;;;;;;;2.40;2.30;;;26.20;67.40;;;;;;5090841;28;20254;-76
2023/05/31 08:50:45;;;;;;;2.47;2.38;;;26.10;68.30;;;;;;5091243;28;20171;-76
2023/05/31 08:53:11;;;;;;;3.05;2.88;;;26.10;69.10;;;;;;5092446;28;20182;-76
2023/05/31 08:55:37;;;;;;;2.30;2.20;;;26.20;69.30;;;;;;5092264;28;20646;-77
2023/05/31 08:58:05;;;;;;;2.67;2.47;;;26.20;68.40;;;;;;5092349;28;20174;-76
2023/05/31 09:00:32;;;;;;;2.28;2.17;;;26.30;67.00;;;;;;5092234;28;20178;-77
2023/05/31 09:02:59;;;;;;;2.63;2.42;;;26.10;69.00;;;;;;5092328;28;20257;-77
2023/05/31 09:05:25;;;;;;;2.40;2.30;;;25.90;68.30;;;;;;5092091;28;20206;-77
2023/05/31 09:07:51;;;;;;;2.67;2.47;;;25.60;67.40;;;;;;5092171;28;20190;-77
2023/05/31 09:10:17;;;;;;;2.95;2.13;;;25.60;68.30;;;;;;5092206;28;20173;-76
2023/05/31 09:12:43;;;;;;;3.17;2.55;;;25.60;68.90;;;;;;5090673;28;20174;-76
2023/05/31 09:15:15;;;;;;;2.60;2.40;;;25.60;70.20;;;;;;5092050;28;20189;-76
2023/05/31 09:17:45;;;;;;;2.15;2.05;;;25.70;70.40;;;;;;5091677;28;20331;-76
2023/05/31 09:20:11;;;;;;;2.72;2.53;;;25.90;69.40;;;;;;5092029;28;20232;-77
2023/05/31 09:22:37;;;;;;;2.78;2.45;;;25.90;67.70;;;;;;5090484;28;20657;-77
2023/05/31 09:25:03;;;;;;;2.88;2.30;;;26.00;68.70;;;;;;5091885;28;20210;-77
2023/05/31 09:27:39;;;;;;;2.13;2.03;;;25.90;69.80;;;;;;5090304;28;20202;-76
2023/05/31 09:30:13;;;;;;;2.55;2.50;;;26.00;69.10;;;;;;5091880;28;20171;-76
2023/05/31 09:32:39;;;;;;;2.72;2.55;;;26.10;69.30;;;;;;5089014;28;20568;-77
2023/05/31 09:35:12;;;;;;;2.42;2.22;;;26.10;69.00;;;;;;5091618;28;20178;-77
2023/05/31 09:37:48;;;;;;;2.58;2.47;;;25.90;69.70;;;;;;5091456;28;20219;-77
2023/05/31 09:40:22;;;;;;;2.13;2.05;;;25.80;68.60;;;;;;5085166;28;20178;-77
2023/05/31 09:42:51;;;;;;;2.22;2.15;;;25.70;68.50;;;;;;5091277;28;20185;-76
2023/05/31 09:45:18;;;;;;;2.10;2.03;;;25.60;69.10;;;;;;5089232;28;20636;-76
2023/05/31 09:47:44;;;;;;;1.98;1.88;;;25.50;68.20;;;;;;5091291;28;20166;-76
2023/05/31 09:50:20;;;;;;;2.05;1.90;;;25.40;69.60;;;;;;5091319;28;20261;-76
2023/05/31 09:52:48;;;;;;;3.08;2.25;;;25.30;69.70;;;;;;5091336;28;20170;-76
2023/05/31 09:55:15;;;;;;;2.95;2.75;;;25.20;70.40;;;;;;5091221;28;20205;-76
2023/05/31 09:57:43;;;;;;;2.38;2.20;;;25.10;70.60;;;;;;5087526;28;20663;-76
2023/05/31 10:00:17;;;;;;;1.90;1.80;;;25.10;70.90;;;;;;5090816;28;20179;-76
2023/05/31 10:02:50;;;;;;;2.20;2.20;;;25.00;70.80;;;;;;5087934;28;20583;-76
2023/05/31 10:05:17;;;;;;;2.78;2.10;;;25.00;70.80;;;;;;5089735;28;20707;-76
2023/05/31 10:07:49;;;;;;;2.17;2.15;;;24.90;69.80;;;;;;5090828;28;20234;-77
2023/05/31 10:10:19;;;;;;;2.10;2.00;;;24.80;71.00;;;;;;5089570;28;20651;-76
2023/05/31 10:13:01;;;;;;;2.00;1.90;;;24.60;71.70;;;;;;5090518;28;20171;-77
2023/05/31 10:15:27;;;;;;;2.28;2.17;;;24.70;72.60;;;;;;5086709;28;20255;-77
2023/05/31 10:18:17;;;;;;;2.15;2.15;;;24.70;73.50;;;;;;5090569;28;20178;-77
2023/05/31 10:20:53;;;;;;;11.38;2.70;;;24.80;73.30;;;;;;5090905;28;20178;-76
2023/05/31 10:23:27;;;;;;;2.45;2.35;;;24.90;72.50;;;;;;5090362;28;20178;-77
2023/05/31 10:26:20;;;;;;;2.13;1.90;;;25.00;72.60;;;;;;5090687;28;20202;-77
2023/05/31 10:28:56;;;;;;;2.10;2.00;;;25.00;71.30;;;;;;5090109;28;20174;-77
2023/05/31 10:31:26;;;;;;;2.55;2.22;;;25.10;71.80;;;;;;5088834;28;20184;-77
2023/05/31 10:34:03;;;;;;;2.35;2.25;;;25.10;70.40;;;;;;5089254;28;20178;-77
2023/05/31 10:36:28;;;;;;;2.70;2.45;;;25.10;72.00;;;;;;5086484;28;20176;-77
2023/05/31 10:39:11;;;;;;;2.95;2.20;;;25.00;71.00;;;;;;5089845;28;20205;-77
2023/05/31 10:41:44;;;;;;;1.90;1.80;;;25.10;71.40;;;;;;5084850;28;20805;-76
2023/05/31 10:44:18;;;;;;;2.08;1.38;;;25.20;70.80;;;;;;5090191;28;20216;-76
2023/05/31 10:46:48;;;;;;;1.45;1.45;;;25.20;68.70;;;;;;5085866;28;20195;-76
2023/05/31 10:49:15;;;;;;;1.73;1.63;;;25.20;67.90;;;;;;5090165;28;20194;-76
2023/05/31 10:51:45;;;;;;;1.45;1.45;;;25.00;70.00;;;;;;5090101;28;20170;-76
2023/05/31 10:54:25;;;;;;;1.27;1.25;;;24.80;71.50;;;;;;5086183;28;20178;-76
2023/05/31 10:56:55;;;;;;;2.10;1.17;;;24.80;70.20;;;;;;5088789;28;20687;-77
2023/05/31 10:59:22;;;;;;;1.83;1.73;;;24.60;71.40;;;;;;5089852;28;20408;-78
2023/05/31 11:01:48;;;;;;;1.20;1.20;;;24.60;71.10;;;;;;5090059;28;20550;-77
2023/05/31 11:04:25;;;;;;;1.35;1.17;;;24.50;71.60;;;;;;5083077;28;20208;-76
2023/05/31 11:07:14;;;;;;;1.05;1.05;;;24.50;72.00;;;;;;5085462;28;20204;-76
2023/05/31 11:09:42;;;;;;;1.15;1.15;;;24.60;71.70;;;;;;5082871;28;20192;-76
2023/05/31 11:12:11;;;;;;;1.63;1.52;;;24.70;73.10;;;;;;5089083;28;20227;-76
2023/05/31 11:14:37;;;;;;;1.52;1.52;;;24.70;73.30;;;;;;5089633;28;20598;-75
2023/05/31 11:17:04;;;;;;;1.52;1.52;;;24.80;73.50;;;;;;5088750;28;20200;-76
2023/05/31 11:19:30;;;;;;;1.27;1.27;;;25.00;73.40;;;;;;5085822;28;20174;-76
2023/05/31 11:22:08;;;;;;;1.50;1.40;;;25.10;73.40;;;;;;5088429;28;20566;-76
2023/05/31 11:24:55;;;;;;;1.77;1.67;;;25.30;73.00;;;;;;5082752;28;20205;-75
2023/05/31 11:27:23;;;;;;;1.63;1.63;;;25.40;71.50;;;;;;5085796;28;20217;-75
2023/05/31 11:29:51;;;;;;;1.98;1.90;;;25.60;70.90;;;;;;5088493;28;20194;-76
2023/05/31 11:32:22;;;;;;;2.35;2.17;;;25.70;70.10;;;;;;5084354;28;20194;-76
2023/05/31 11:34:59;;;;;;;1.77;1.67;;;25.90;70.70;;;;;;5084860;28;20178;-76
2023/05/31 11:37:29;;;;;;;2.22;1.95;;;26.00;69.80;;;;;;5085077;28;20292;-76
2023/05/31 11:39:55;;;;;;;1.58;1.58;;;26.20;68.80;;;;;;5083253;28;20178;-77
2023/05/31 11:42:22;;;;;;;1.42;1.35;;;26.60;69.00;;;;;;5082563;28;20213;-77
2023/05/31 11:44:50;;;;;;;1.50;1.50;;;27.30;67.00;;;;;;5088525;28;20337;-76
2023/05/31 11:47:20;;;;;;;1.75;1.67;;;28.00;65.70;;;;;;5086872;28;20188;-77
2023/05/31 11:49:46;;;;;;;1.63;1.50;;;28.50;62.60;;;;;;5087972;28;20174;-76
2023/05/31 11:52:17;;;;;;;1.48;1.42;;;28.60;63.00;;;;;;5089454;28;20166;-76
2023/05/31 11:54:45;;;;;;;2.97;1.58;;;28.50;64.60;;;;;;5092504;28;20205;-76
2023/05/31 11:57:11;;;;;;;1.88;1.77;;;28.30;64.60;;;;;;5089910;28;20181;-76
2023/05/31 11:59:39;;;;;;;6.53;2.13;;;27.90;65.40;;;;;;5089394;28;20193;-77
2023/05/31 12:02:06;;;;;;;2.50;1.75;;;27.50;66.30;;;;;;5087316;28;20172;-76
2023/05/31 12:04:40;;;;;;;3.53;1.90;;;27.10;66.50;;;;;;5083402;28;20205;-75
2023/05/31 12:07:22;;;;;;;2.05;1.70;;;26.70;67.40;;;;;;5089951;28;20253;-75
2023/05/31 12:09:48;;;;;;;2.88;1.48;;;;;;;;;;5090724;28;20639;-77
2023/05/31 12:12:14;;;;;;;1.65;1.55;;;26.00;68.90;;;;;;5087582;28;20197;-76
2023/05/31 12:14:53;;;;;;;1.83;1.70;;;25.80;68.80;;;;;;5090004;28;20678;-76
2023/05/31 12:17:19;;;;;;;2.03;1.92;;;;;;;;;;5087357;28;20178;-76
2023/05/31 12:19:48;;;;;;;2.55;1.77;;;25.10;70.80;;;;;;5085235;28;20174;-76
2023/05/31 12:22:14;;;;;;;2.38;1.30;;;24.70;72.40;;;;;;5084156;28;20273;-76
2023/05/31 12:24:54;;;;;;;1.55;1.55;;;24.30;73.00;;;;;;5081350;28;20231;-78
2023/05/31 12:27:24;;;;;;;1.50;1.40;;;24.00;72.40;;;;;;5088578;28;20628;-76
2023/05/31 12:29:54;;;;;;;3.15;1.42;;;23.80;73.00;;;;;;5085626;28;20182;-77
2023/05/31 12:32:21;;;;;;;1.30;1.30;;;23.70;73.30;;;;;;5089685;28;20186;-77
2023/05/31 12:34:47;;;;;;;1.25;1.25;;;;;;;;;;5088963;28;20206;-77
2023/05/31 12:37:13;;;;;;;1.77;1.58;;;23.50;74.90;;;;;;5087192;28;20202;-76
2023/05/31 12:39:40;;;;;;;1.60;1.50;;;;;;;;;;5086486;28;20198;-77
2023/05/31 12:42:06;;;;;;;3.92;1.70;;;23.40;76.40;;;;;;5081048;28;20273;-77
2023/05/31 12:44:32;;;;;;;1.88;1.80;;;23.40;76.70;;;;;;5087159;28;20285;-77
2023/05/31 12:47:03;;;;;;;1.95;1.85;;;23.30;77.90;;;;;;5085417;28;20176;-77
2023/05/31 12:49:32;;;;;;;1.67;1.58;;;23.30;78.60;;;;;;5084137;28;20261;-77
2023/05/31 12:51:59;;;;;;;1.40;1.30;;;;;;;;;;5081806;28;20213;-74
2023/05/31 12:54:26;;;;;;;1.45;1.35;;;23.10;77.00;;;;;;5089515;28;20182;-76